Covington, LA (70433)

6:08 PM CDT on September 03, 2015 (GMT -0500)
Estates of Northpark | | Change Station
CLOSE
Current Station
Personal Weather Station
Location: Covington, LA
Elevation: 24 ft
Nearby Weather Stations

Elev 24 ft 30.44 °N, 90.10 °W | Updated 8 minutes ago

Partly Cloudy
Partly Cloudy
83.0 °F
Feels Like 92 °F
N
0.0
Wind Variable Wind from ESE
Gusts 2.0 mph

Today
High -- | Low -- °F
--% Chance of Precip.
Yesterday
High -- | Low -- °F
Precip. -- in
6:38 AM 7:21 PM
Waning Gibbous, 66% visible
Pressure 29.92 in
Visibility 10.0 miles
Clouds Scattered Clouds 2800 ft
Scattered Clouds 3800 ft
Heat Index 92 °F
Dew Point 77 °F
Humidity 83%
Rainfall 0.49 in
Snow Depth Not available.
UV 1 out of 12
Pollen 7.60 out of 12
Air Quality Not available.
Flu Activity Not available.
METAR KHDC 032255Z AUTO 14009KT 10SM SCT028 SCT038 30/22 A2992 RMK AO2
Pressure 29.92 in
Visibility 10.0 miles
Clouds Scattered Clouds 2800 ft
Scattered Clouds 3800 ft
Heat Index 92 °F
Dew Point 77 °F
Humidity 83%
Rainfall 0.49 in
Snow Depth Not available.
UV 1 out of 12
Pollen 7.60 out of 12
Air Quality Not available.
Flu Activity Not available.
METAR KHDC 032255Z AUTO 14009KT 10SM SCT028 SCT038 30/22 A2992 RMK AO2

10-Day Weather Forecast

×

Almanac

Astronomy

Sep. 03, 2015 Rise Set
Actual Time
Civil Twilight
Nautical Twilight
Astronomical Twilight
Moon
Length of Visible Light
Length of Day
Tomorrow will be .
, % of the Moon is Illuminated

Today's Extremes

State Highs State Lows

Community

WunderPhotos

Upload Photos

1,852,058 photos uploaded!

WunderBlogs® & News

Nearby

Air Quality

  Air Quality AQ Index Pollutant
Not available.

Snow Depth

Station Depth Elevation

Earthquake Activity

City Distance Mag. Time & Date
Minimum magnitude displayed is 2.5.

Coastal Water Temperatures

Place Temperature

Stations

Nearby Weather Stations

Station Location Temp. Windchill Dew Point Humidity Wind Precip. Elev Updated Type